createdAt,value
2022-12-03T00:00:38.312Z,22.1
2022-12-03T00:01:45.634Z,22.5
2022-12-03T00:02:52.925Z,23.5
2022-12-03T00:04:00.276Z,23.7
2022-12-03T00:05:07.622Z,24.9
2022-12-03T00:06:14.624Z,25
2022-12-03T00:07:21.848Z,23.9
2022-12-03T00:08:29.020Z,25.1
2022-12-03T00:09:36.352Z,24.8
2022-12-03T00:10:43.223Z,25.1
2022-12-03T00:11:50.510Z,25.6
2022-12-03T00:12:57.724Z,25.2
2022-12-03T00:14:04.640Z,25
2022-12-03T00:15:11.830Z,24.8
2022-12-03T00:16:19.164Z,25.2
2022-12-03T00:17:26.172Z,23.8
2022-12-03T00:18:34.294Z,24.2
2022-12-03T00:19:41.643Z,23.6
2022-12-03T00:20:49.978Z,24.5
2022-12-03T00:21:56.828Z,23
2022-12-03T00:23:03.900Z,23.2
2022-12-03T00:24:11.055Z,23
2022-12-03T00:25:18.196Z,22.7
2022-12-03T00:26:25.479Z,23.1
2022-12-03T00:27:33.577Z,22.4
2022-12-03T00:28:40.715Z,23
2022-12-03T00:29:48.208Z,21.9
2022-12-03T00:30:55.644Z,24.1
2022-12-03T00:32:02.556Z,23
2022-12-03T00:33:09.776Z,23.1
2022-12-03T00:34:16.956Z,23.9
2022-12-03T00:35:24.080Z,24.8
2022-12-03T00:36:31.187Z,23.8
2022-12-03T00:37:38.408Z,23.8
2022-12-03T00:38:45.475Z,23.6
2022-12-03T00:39:52.736Z,24.7
2022-12-03T00:40:59.707Z,24.2
2022-12-03T00:42:06.900Z,23.3
2022-12-03T00:43:14.028Z,23
2022-12-03T00:44:21.557Z,23.9
2022-12-03T00:45:28.895Z,24.1
2022-12-03T00:46:36.111Z,23.6
2022-12-03T00:47:43.215Z,24.3
2022-12-03T00:48:50.443Z,24.2
2022-12-03T00:49:57.451Z,23.5
2022-12-03T00:51:05.312Z,23.7
2022-12-03T00:52:12.564Z,24.4
2022-12-03T00:53:19.947Z,25.4
2022-12-03T00:54:31.504Z,25.7
2022-12-03T00:55:34.203Z,24.6
2022-12-03T00:56:41.341Z,24.4
2022-12-03T00:57:48.171Z,25.2
2022-12-03T00:58:55.759Z,26.1
2022-12-03T01:00:03.125Z,25.3
2022-12-03T01:01:10.836Z,26.3
2022-12-03T01:02:18.016Z,25.4
2022-12-03T01:03:25.243Z,25.6
2022-12-03T01:04:32.115Z,26.1
2022-12-03T01:05:39.283Z,26.8
2022-12-03T01:06:46.435Z,27
2022-12-03T01:07:54.525Z,25.5
2022-12-03T01:09:01.711Z,26.4
2022-12-03T01:10:08.855Z,25.5
2022-12-03T01:11:16.043Z,26.1
2022-12-03T01:12:28.491Z,26.8
2022-12-03T01:13:35.867Z,27.9
2022-12-03T01:14:44.418Z,29.1
2022-12-03T01:15:51.642Z,26
2022-12-03T01:16:59.864Z,27.4
2022-12-03T01:18:06.809Z,28.3
2022-12-03T01:19:13.841Z,26.7
2022-12-03T01:20:21.006Z,26.3
2022-12-03T01:21:28.419Z,27.2
2022-12-03T01:22:35.328Z,26.9
2022-12-03T01:23:42.708Z,27.2
2022-12-03T01:24:49.776Z,26.9
2022-12-03T01:25:56.719Z,27.4
2022-12-03T01:27:03.789Z,26.2
2022-12-03T01:28:10.935Z,25.3
2022-12-03T01:29:18.091Z,26.2
2022-12-03T01:30:25.428Z,24.9
2022-12-03T01:31:32.536Z,25.8
2022-12-03T01:32:44.659Z,25.4
2022-12-03T01:33:51.747Z,24.3
2022-12-03T01:34:58.831Z,25.3
2022-12-03T01:36:05.963Z,25.7
2022-12-03T01:37:13.072Z,26.3
2022-12-03T01:38:20.311Z,25.5
2022-12-03T01:39:27.495Z,25.6
2022-12-03T01:40:35.480Z,25.2
2022-12-03T01:41:42.658Z,25.3
2022-12-03T01:42:49.963Z,26.1
2022-12-03T01:43:56.940Z,25.6
2022-12-03T01:45:04.226Z,25.8
2022-12-03T01:46:12.686Z,26.4
2022-12-03T01:47:19.575Z,24.5
2022-12-03T01:48:31.964Z,25.4
2022-12-03T01:49:39.088Z,25.9
2022-12-03T01:50:49.239Z,25.3
2022-12-03T01:51:56.207Z,24.9
2022-12-03T01:53:03.308Z,26.9
2022-12-03T01:54:10.468Z,25
2022-12-03T01:55:17.650Z,25.8
2022-12-03T01:56:24.859Z,25.9
2022-12-03T01:57:31.947Z,25.3
2022-12-03T01:58:45.268Z,24.7
2022-12-03T01:59:52.525Z,24.8
2022-12-03T02:00:59.467Z,24.7
2022-12-03T02:02:06.675Z,25.6
2022-12-03T02:03:16.315Z,25.2
2022-12-03T02:04:26.843Z,26.4
2022-12-03T02:05:33.732Z,25.1
2022-12-03T02:06:40.850Z,24.8
2022-12-03T02:07:48.119Z,25.9
2022-12-03T02:08:55.383Z,26.3
2022-12-03T02:10:02.603Z,25.7
2022-12-03T02:11:10.621Z,25.3
2022-12-03T02:12:23.167Z,26.1
2022-12-03T02:13:38.667Z,25.8
2022-12-03T02:14:45.698Z,26.4
2022-12-03T02:15:53.202Z,26.2
2022-12-03T02:17:00.498Z,26.1
2022-12-03T02:18:07.398Z,25.6
2022-12-03T02:19:14.816Z,25
2022-12-03T02:20:24.804Z,25.9
2022-12-03T02:21:31.939Z,25.6
2022-12-03T02:22:50.227Z,25.8
2022-12-03T02:24:07.526Z,26
2022-12-03T02:25:20.669Z,27.3
2022-12-03T02:26:27.964Z,26.8
2022-12-03T02:27:35.955Z,24.9
2022-12-03T02:28:43.294Z,27.4
2022-12-03T02:29:50.674Z,27.1
2022-12-03T02:30:57.723Z,26.5
2022-12-03T02:32:05.772Z,26.8
2022-12-03T02:33:12.847Z,26.9
2022-12-03T02:34:19.929Z,26.3
2022-12-03T02:35:37.449Z,26.6
2022-12-03T02:36:44.568Z,26.8
2022-12-03T02:37:51.631Z,26.1
2022-12-03T02:39:01.762Z,27.3
2022-12-03T02:40:08.934Z,26.6
2022-12-03T02:41:16.406Z,26.3
2022-12-03T02:42:28.851Z,27.1
2022-12-03T02:43:39.066Z,25.2
2022-12-03T02:44:46.226Z,26.1
2022-12-03T02:45:53.444Z,27.1
2022-12-03T02:47:00.503Z,26.3
2022-12-03T02:48:07.620Z,26.3
2022-12-03T02:49:14.700Z,25.2
2022-12-03T02:50:21.940Z,27.2
2022-12-03T02:51:29.956Z,26.3
2022-12-03T02:52:37.302Z,26.4
2022-12-03T02:53:44.671Z,27.1
2022-12-03T02:54:51.907Z,27.2
2022-12-03T02:55:58.817Z,27.2
2022-12-03T02:57:06.597Z,25.9
2022-12-03T02:58:14.356Z,25.4
2022-12-03T02:59:22.552Z,26.9
2022-12-03T03:00:30.296Z,27
2022-12-03T03:01:37.713Z,25.3
2022-12-03T03:02:44.620Z,26.4
2022-12-03T03:03:51.836Z,26.3
2022-12-03T03:04:58.945Z,27.1
2022-12-03T03:06:05.984Z,25.8
2022-12-03T03:07:13.129Z,27
2022-12-03T03:08:20.599Z,27.1
2022-12-03T03:09:27.812Z,26.4
2022-12-03T03:10:34.642Z,26.9
2022-12-03T03:11:42.321Z,27.2
2022-12-03T03:12:49.705Z,26.7
2022-12-03T03:13:56.621Z,27.7
2022-12-03T03:15:04.157Z,26.7
2022-12-03T03:16:12.117Z,28
2022-12-03T03:17:18.991Z,27.4
2022-12-03T03:18:26.150Z,26.8
2022-12-03T03:19:33.556Z,27.3
2022-12-03T03:20:40.486Z,26.8
2022-12-03T03:21:47.656Z,27.1
2022-12-03T03:22:54.882Z,27.5
2022-12-03T03:24:12.059Z,26.7
2022-12-03T03:25:19.288Z,27.5
2022-12-03T03:26:26.499Z,27
2022-12-03T03:27:33.513Z,27.1
2022-12-03T03:28:40.750Z,27.1
2022-12-03T03:29:50.440Z,27.8
2022-12-03T03:30:57.661Z,27.1
2022-12-03T03:32:04.714Z,27.8
2022-12-03T03:33:11.836Z,27.7
2022-12-03T03:34:19.198Z,27.8
2022-12-03T03:35:26.301Z,27.7
2022-12-03T03:36:33.251Z,27.8
2022-12-03T03:37:40.477Z,27.3
2022-12-03T03:38:47.589Z,26.6
2022-12-03T03:39:54.824Z,27.8
2022-12-03T03:41:02.059Z,27.2
2022-12-03T03:42:09.460Z,27.6
2022-12-03T03:43:16.593Z,27.8
2022-12-03T03:44:23.756Z,26.8
2022-12-03T03:45:30.967Z,28.2
2022-12-03T03:46:38.297Z,28
2022-12-03T03:47:45.249Z,27.9
2022-12-03T03:48:52.440Z,27.2
2022-12-03T03:50:00.492Z,28
2022-12-03T03:51:07.597Z,27.8
2022-12-03T03:52:14.754Z,28
2022-12-03T03:53:21.984Z,28.4
2022-12-03T03:54:29.213Z,27.7
2022-12-03T03:55:36.352Z,27.4
2022-12-03T03:56:43.500Z,28.1
2022-12-03T03:57:51.104Z,29.1
2022-12-03T03:58:58.332Z,27.5
2022-12-03T04:00:05.320Z,27.9
2022-12-03T04:01:12.617Z,28.6
2022-12-03T04:02:19.607Z,28.4
2022-12-03T04:03:26.773Z,28.9
2022-12-03T04:04:33.924Z,28.5
2022-12-03T04:05:41.084Z,29.4
2022-12-03T04:06:48.492Z,28.6
2022-12-03T04:07:55.390Z,27.7
2022-12-03T04:09:02.402Z,28.6
2022-12-03T04:10:09.520Z,29.2
2022-12-03T04:11:21.825Z,26.4
2022-12-03T04:12:34.101Z,28.6
2022-12-03T04:13:46.504Z,28.7
2022-12-03T04:14:53.999Z,28.4
2022-12-03T04:16:00.743Z,28.3
2022-12-03T04:17:07.695Z,28.6
2022-12-03T04:18:14.868Z,28.4
2022-12-03T04:19:27.104Z,28.6
2022-12-03T04:20:34.242Z,29.3
2022-12-03T04:21:41.513Z,28.5
2022-12-03T04:22:53.749Z,28.9
2022-12-03T04:24:00.897Z,27.7
2022-12-03T04:25:08.472Z,27.5
2022-12-03T04:26:21.472Z,28.4
2022-12-03T04:27:33.446Z,29.1
2022-12-03T04:28:43.776Z,29.5
2022-12-03T04:29:53.292Z,29
2022-12-03T04:31:00.425Z,28.7
2022-12-03T04:32:07.520Z,29
2022-12-03T04:33:19.712Z,27.7
2022-12-03T04:34:32.240Z,29.3
2022-12-03T04:35:44.346Z,27.9
2022-12-03T04:36:51.436Z,28.7
2022-12-03T04:37:58.652Z,29
2022-12-03T04:39:05.651Z,28.4
2022-12-03T04:40:12.905Z,28.3
2022-12-03T04:41:25.108Z,27.8
2022-12-03T04:42:32.397Z,28.6
2022-12-03T04:43:40.281Z,27.5
2022-12-03T04:44:52.776Z,28.6
2022-12-03T04:45:59.451Z,27.8
2022-12-03T04:47:06.306Z,28.8
2022-12-03T04:48:16.684Z,28.7
2022-12-03T04:49:23.750Z,27.3
2022-12-03T04:50:30.835Z,28.4
2022-12-03T04:51:37.981Z,27.8
2022-12-03T04:52:45.148Z,29.1
2022-12-03T04:53:52.331Z,27.5
2022-12-03T04:55:00.392Z,27.1
2022-12-03T04:56:08.395Z,27.8
2022-12-03T04:57:15.151Z,27.8
2022-12-03T04:58:22.360Z,27.4
2022-12-03T04:59:29.618Z,29.4
2022-12-03T05:00:36.764Z,28.2
2022-12-03T05:01:43.906Z,28.5
2022-12-03T05:02:51.074Z,27.9
2022-12-03T05:03:58.181Z,28.7
2022-12-03T05:05:05.224Z,29
2022-12-03T05:06:12.903Z,27.3
2022-12-03T05:07:20.400Z,28.2
2022-12-03T05:08:27.201Z,28.7
2022-12-03T05:09:34.359Z,27.7
2022-12-03T05:10:41.580Z,28.9
2022-12-03T05:11:48.733Z,28.3
2022-12-03T05:12:55.932Z,28.7
2022-12-03T05:14:03.175Z,28.8
2022-12-03T05:15:09.991Z,27.1
2022-12-03T05:16:17.226Z,28.4
2022-12-03T05:17:24.446Z,28.7
2022-12-03T05:18:31.540Z,27.7
2022-12-03T05:19:39.325Z,27.4
2022-12-03T05:20:53.607Z,28.3
2022-12-03T05:21:58.732Z,28.6
2022-12-03T05:23:05.884Z,27.9
2022-12-03T05:24:12.784Z,26.8
2022-12-03T05:25:19.979Z,28.7
2022-12-03T05:26:27.125Z,27.3
2022-12-03T05:27:34.306Z,27.1
2022-12-03T05:28:41.512Z,28.2
2022-12-03T05:29:48.806Z,29.1
2022-12-03T05:30:55.893Z,27.4
2022-12-03T05:32:03.060Z,28.1
2022-12-03T05:33:09.995Z,28.3
2022-12-03T05:34:17.203Z,27.7
2022-12-03T05:35:24.804Z,28.1
2022-12-03T05:36:32.020Z,28.5
2022-12-03T05:37:39.207Z,29.2
2022-12-03T05:38:46.626Z,28.5
2022-12-03T05:39:53.527Z,26.4
2022-12-03T05:41:00.755Z,29.2
2022-12-03T05:42:07.784Z,28.3
2022-12-03T05:43:19.975Z,28.5
2022-12-03T05:44:28.223Z,27.7
2022-12-03T05:45:35.280Z,29.5
2022-12-03T05:46:42.573Z,27.4
2022-12-03T05:47:49.625Z,27.8
2022-12-03T05:48:56.775Z,28.1
2022-12-03T05:50:04.208Z,29.3
2022-12-03T05:51:11.635Z,28.8
2022-12-03T05:52:18.581Z,27.4
2022-12-03T05:53:25.721Z,27.3
2022-12-03T05:54:32.923Z,28.4
2022-12-03T05:55:40.895Z,27.6
2022-12-03T05:56:47.943Z,27.7
2022-12-03T05:57:55.032Z,27.8
2022-12-03T05:59:02.024Z,28.4
2022-12-03T06:00:09.063Z,27.8
2022-12-03T06:01:16.260Z,29.3
2022-12-03T06:02:24.102Z,28.7
2022-12-03T06:03:31.302Z,28.9
2022-12-03T06:04:38.287Z,27.7
2022-12-03T06:05:45.412Z,27.9
2022-12-03T06:06:52.505Z,28.3
2022-12-03T06:07:59.855Z,28.8
2022-12-03T06:09:06.747Z,27.6
2022-12-03T06:10:13.914Z,29.3
2022-12-03T06:11:21.184Z,28
2022-12-03T06:12:28.207Z,29.5
2022-12-03T06:13:35.372Z,29.2
2022-12-03T06:14:42.574Z,28.7
2022-12-03T06:15:49.731Z,29.8
2022-12-03T06:16:57.040Z,27.9
2022-12-03T06:18:04.022Z,28
2022-12-03T06:19:10.991Z,29.3
2022-12-03T06:20:18.155Z,29.1
2022-12-03T06:21:25.360Z,28.3
2022-12-03T06:22:32.591Z,30.2
2022-12-03T06:23:40.508Z,28.4
2022-12-03T06:24:47.331Z,28.2
2022-12-03T06:25:54.483Z,29.2
2022-12-03T06:27:01.608Z,28.7
2022-12-03T06:28:08.670Z,28.8
2022-12-03T06:29:15.851Z,27.2
2022-12-03T06:30:22.966Z,29.3
2022-12-03T06:31:30.315Z,28.9
2022-12-03T06:32:37.312Z,29.3
2022-12-03T06:33:44.552Z,29.6
2022-12-03T06:34:52.352Z,27.9
2022-12-03T06:35:59.527Z,29.8
2022-12-03T06:37:07.443Z,29.1
2022-12-03T06:38:14.608Z,28.6
2022-12-03T06:39:21.971Z,29.5
2022-12-03T06:40:28.791Z,29
2022-12-03T06:41:36.011Z,28.8
2022-12-03T06:42:43.487Z,29.4
2022-12-03T06:43:50.304Z,30
2022-12-03T06:44:57.624Z,29.1
2022-12-03T06:46:05.640Z,29.1
2022-12-03T06:47:12.711Z,30.2
2022-12-03T06:48:20.701Z,29.3
2022-12-03T06:49:28.398Z,29
2022-12-03T06:50:35.215Z,29.5
2022-12-03T06:51:42.366Z,30
2022-12-03T06:52:49.479Z,29.8
2022-12-03T06:53:56.756Z,30.6
2022-12-03T06:55:04.127Z,30.6
2022-12-03T06:56:11.560Z,30.4
2022-12-03T06:57:18.653Z,29.7
2022-12-03T06:58:25.651Z,30.7
2022-12-03T06:59:32.851Z,29.6
2022-12-03T07:00:40.051Z,31.1
2022-12-03T07:01:47.288Z,31.2
2022-12-03T07:02:54.504Z,31.8
2022-12-03T07:04:01.722Z,30.3
2022-12-03T07:05:08.587Z,30.8
2022-12-03T07:06:15.744Z,31.6
2022-12-03T07:07:22.823Z,32.1
2022-12-03T07:08:30.080Z,30.6
2022-12-03T07:09:37.248Z,31.7
2022-12-03T07:10:44.351Z,32.1
2022-12-03T07:11:51.759Z,31.7
2022-12-03T07:12:58.664Z,33.1
2022-12-03T07:14:05.972Z,33.3
2022-12-03T07:15:13.071Z,31.8
2022-12-03T07:16:20.024Z,33.9
2022-12-03T07:17:27.159Z,34.2
2022-12-03T07:18:34.340Z,32.8
2022-12-03T07:19:41.496Z,32.9
2022-12-03T07:20:50.530Z,33.6
2022-12-03T07:21:57.459Z,33.7
2022-12-03T07:23:05.378Z,32.9
2022-12-03T07:24:12.499Z,34.1
2022-12-03T07:25:23.314Z,31.7
2022-12-03T07:26:26.877Z,33.6
2022-12-03T07:27:33.991Z,32.6
2022-12-03T07:28:41.287Z,34.4
2022-12-03T07:29:48.320Z,35.8
2022-12-03T07:30:55.448Z,34.8
2022-12-03T07:32:02.697Z,34.1
2022-12-03T07:33:09.932Z,33.4
2022-12-03T07:34:16.919Z,34.9
2022-12-03T07:35:23.966Z,34.5
2022-12-03T07:36:31.151Z,34.1
2022-12-03T07:37:38.275Z,33.6
2022-12-03T07:38:45.378Z,34.7
2022-12-03T07:39:52.575Z,34.3
2022-12-03T07:40:59.751Z,36.3
2022-12-03T07:42:06.823Z,35.3
2022-12-03T07:43:13.895Z,35.5
2022-12-03T07:44:21.927Z,37.1
2022-12-03T07:45:29.243Z,35.3
2022-12-03T07:46:37.342Z,38.6
2022-12-03T07:47:44.668Z,38.4
2022-12-03T07:48:51.825Z,37
2022-12-03T07:49:58.912Z,36.1
2022-12-03T07:51:06.177Z,37.3
2022-12-03T07:52:13.512Z,35.7
2022-12-03T07:53:20.672Z,37
2022-12-03T07:54:28.139Z,36.9
2022-12-03T07:55:35.524Z,36
2022-12-03T07:56:42.709Z,36.3
2022-12-03T07:57:49.798Z,35.6
2022-12-03T07:58:56.888Z,36.1
2022-12-03T08:00:04.125Z,35.5
2022-12-03T08:01:11.814Z,34.8
2022-12-03T08:02:21.501Z,35.7
2022-12-03T08:03:27.071Z,36.4
2022-12-03T08:04:34.059Z,36.5
2022-12-03T08:05:41.231Z,36.6
2022-12-03T08:06:48.730Z,34.4
2022-12-03T08:07:55.738Z,34.8
2022-12-03T08:09:02.787Z,37
2022-12-03T08:10:09.791Z,34.5
2022-12-03T08:11:16.954Z,35
2022-12-03T08:12:24.088Z,37.2
2022-12-03T08:13:36.370Z,36.6
2022-12-03T08:14:44.063Z,35.7
2022-12-03T08:15:51.287Z,35.4
2022-12-03T08:17:01.451Z,37.1
2022-12-03T08:18:09.640Z,36.1
2022-12-03T08:19:16.531Z,35.6
2022-12-03T08:20:23.648Z,36.7
2022-12-03T08:21:30.831Z,36.4
2022-12-03T08:22:37.959Z,38
2022-12-03T08:23:45.510Z,35.9
2022-12-03T08:24:52.957Z,38.3
2022-12-03T08:25:59.899Z,39.9
2022-12-03T08:27:07.117Z,39.4
2022-12-03T08:28:20.251Z,37.5
2022-12-03T08:29:27.443Z,38.5
2022-12-03T08:30:34.510Z,36.8
2022-12-03T08:31:42.564Z,36.3
2022-12-03T08:32:52.299Z,34.9
2022-12-03T08:33:59.539Z,35.2
2022-12-03T08:35:16.813Z,32.6
2022-12-03T08:36:23.915Z,33.2
2022-12-03T08:37:33.587Z,33.9
2022-12-03T08:38:40.891Z,33.1
2022-12-03T08:39:47.948Z,33.1
2022-12-03T08:40:55.383Z,30.8
2022-12-03T08:42:02.891Z,32.7
2022-12-03T08:43:20.467Z,31.4
2022-12-03T08:44:30.808Z,30.5
2022-12-03T08:45:38.121Z,30.3
2022-12-03T08:46:45.096Z,32.7
2022-12-03T08:48:02.424Z,30.7
2022-12-03T08:49:15.601Z,29.4
2022-12-03T08:50:23.061Z,31.4
2022-12-03T08:51:33.144Z,32.6
2022-12-03T08:52:39.931Z,32.2
2022-12-03T08:53:47.160Z,33.1
2022-12-03T08:54:54.706Z,32.6
2022-12-03T08:56:01.702Z,32.7
2022-12-03T08:57:19.215Z,32.3
2022-12-03T08:58:33.987Z,32.1
2022-12-03T08:59:45.546Z,32.8
2022-12-03T09:00:50.998Z,32.1
2022-12-03T09:02:01.137Z,32
2022-12-03T09:03:08.371Z,32.3
2022-12-03T09:04:21.519Z,31.9
2022-12-03T09:05:34.563Z,32.3
2022-12-03T09:06:41.841Z,34
2022-12-03T09:07:50.048Z,33
2022-12-03T09:08:59.317Z,33.9
2022-12-03T09:10:04.323Z,34.1
2022-12-03T09:11:11.363Z,35.2
2022-12-03T09:12:18.540Z,34.8
2022-12-03T09:13:25.783Z,34.1
2022-12-03T09:14:32.779Z,34.1
2022-12-03T09:15:39.980Z,34.5
2022-12-03T09:16:47.093Z,34.8
2022-12-03T09:17:57.071Z,31
2022-12-03T09:19:04.378Z,32
2022-12-03T09:20:11.443Z,31.9
2022-12-03T09:21:18.664Z,32.5
2022-12-03T09:22:25.759Z,33.3
2022-12-03T09:23:32.963Z,32.4
2022-12-03T09:24:40.046Z,33.1
2022-12-03T09:25:47.191Z,32.5
2022-12-03T09:26:55.414Z,33.7
2022-12-03T09:28:03.403Z,33.2
2022-12-03T09:29:12.519Z,33.1
2022-12-03T09:30:18.287Z,32.5
2022-12-03T09:31:25.667Z,33.6
2022-12-03T09:32:32.693Z,33.3
2022-12-03T09:33:39.723Z,34
2022-12-03T09:34:47.679Z,34.5
2022-12-03T09:35:54.496Z,35.6
2022-12-03T09:37:02.948Z,34.4
2022-12-03T09:38:10.303Z,35.3
2022-12-03T09:39:17.459Z,34.8
2022-12-03T09:40:24.562Z,33.7
2022-12-03T09:41:31.722Z,34.1
2022-12-03T09:42:38.859Z,33.9
2022-12-03T09:44:53.488Z,33.6
2022-12-03T09:46:00.482Z,34.6
2022-12-03T09:47:07.431Z,34.9
2022-12-03T09:48:14.563Z,35.2
2022-12-03T09:49:21.792Z,35.6
2022-12-03T09:50:28.890Z,35.7
2022-12-03T09:51:36.161Z,35.9
2022-12-03T09:52:43.179Z,34.8
2022-12-03T09:53:50.456Z,36.5
2022-12-03T09:54:58.544Z,35.4
2022-12-03T09:56:05.559Z,35.9
2022-12-03T09:57:22.869Z,35.7
2022-12-03T09:58:34.442Z,36.4
2022-12-03T09:59:37.236Z,35.5
2022-12-03T10:00:46.159Z,35.8
2022-12-03T10:01:53.023Z,36.4
2022-12-03T10:03:00.092Z,35
2022-12-03T10:04:07.334Z,37
2022-12-03T10:05:14.424Z,35.8
2022-12-03T10:06:24.546Z,35.9
2022-12-03T10:07:31.761Z,35.7
2022-12-03T10:08:39.028Z,36
2022-12-03T10:09:45.988Z,34.6
2022-12-03T10:10:53.067Z,34.9
2022-12-03T10:12:00.569Z,36.3
2022-12-03T10:13:08.347Z,35.7
2022-12-03T10:14:16.238Z,36.7
2022-12-03T10:15:23.910Z,35.2
2022-12-03T10:16:31.227Z,35.6
2022-12-03T10:17:38.360Z,36
2022-12-03T10:18:45.538Z,34.7
2022-12-03T10:19:55.395Z,35
2022-12-03T10:21:02.379Z,34.5
2022-12-03T10:22:09.502Z,35.8
2022-12-03T10:23:16.534Z,34.1
2022-12-03T10:24:26.685Z,33.4
2022-12-03T10:25:33.982Z,34.1
2022-12-03T10:26:42.629Z,33.1
2022-12-03T10:27:49.731Z,33
2022-12-03T10:29:02.074Z,33.7
2022-12-03T10:30:09.282Z,35.3
2022-12-03T10:31:22.822Z,37.2
2022-12-03T10:32:29.989Z,32.9
2022-12-03T10:33:46.120Z,31.9
2022-12-03T10:34:53.676Z,32.5
2022-12-03T10:36:08.985Z,32.5
2022-12-03T10:37:22.718Z,32.8
2022-12-03T10:38:29.989Z,33.4
2022-12-03T10:39:37.142Z,33
2022-12-03T10:40:54.406Z,33.1
2022-12-03T10:42:02.893Z,32.6
2022-12-03T10:43:18.729Z,32.7
2022-12-03T10:44:26.051Z,32.7
2022-12-03T10:45:33.698Z,34.7
2022-12-03T10:46:40.888Z,34.3
2022-12-03T10:47:49.714Z,33.7
2022-12-03T10:49:06.910Z,34
2022-12-03T10:50:19.269Z,32.3
2022-12-03T10:51:26.357Z,34
2022-12-03T10:52:33.242Z,34.5
2022-12-03T10:53:40.584Z,33.7
2022-12-03T10:54:47.634Z,33.9
2022-12-03T10:55:55.600Z,34
2022-12-03T10:57:02.757Z,32.5
2022-12-03T10:58:09.697Z,32.5
2022-12-03T10:59:21.786Z,32.9
2022-12-03T11:00:28.912Z,32.7
2022-12-03T11:01:36.127Z,33.9
2022-12-03T11:02:43.239Z,34.6
2022-12-03T11:03:50.437Z,34.9
2022-12-03T11:04:58.355Z,34.1
2022-12-03T11:06:05.581Z,34.2
2022-12-03T11:07:13.188Z,33.7
2022-12-03T11:08:23.012Z,35.6
2022-12-03T11:09:30.073Z,35
2022-12-03T11:10:37.161Z,35.4
2022-12-03T11:11:44.379Z,33.2
2022-12-03T11:12:51.474Z,35.7
2022-12-03T11:14:09.821Z,36.1
2022-12-03T11:15:17.409Z,35
2022-12-03T11:16:24.658Z,35.9
2022-12-03T11:17:42.365Z,36.9
2022-12-03T11:18:49.634Z,35.5
2022-12-03T11:19:57.755Z,34.7
2022-12-03T11:21:05.122Z,35.5
2022-12-03T11:22:11.868Z,35.1
2022-12-03T11:23:30.162Z,35.8
2022-12-03T11:24:47.724Z,35.5
2022-12-03T11:26:05.646Z,35.2
2022-12-03T11:27:12.519Z,35.5
2022-12-03T11:28:19.994Z,36.2
2022-12-03T11:29:27.046Z,37.7
2022-12-03T11:30:44.840Z,38.2
2022-12-03T11:31:52.209Z,35.9
2022-12-03T11:32:59.086Z,36.4
2022-12-03T11:34:06.129Z,37.2
2022-12-03T11:35:22.394Z,37.3
2022-12-03T11:36:47.984Z,35.6
2022-12-03T11:37:36.703Z,37.3
2022-12-03T11:38:47.491Z,35.9
2022-12-03T11:39:51.398Z,36.7
2022-12-03T11:40:59.095Z,37
2022-12-03T11:42:11.311Z,38
2022-12-03T11:43:26.598Z,37.6
2022-12-03T11:44:43.905Z,37.8
2022-12-03T11:45:51.120Z,36.7
2022-12-03T11:46:58.360Z,37.8
2022-12-03T11:48:05.395Z,37.8
2022-12-03T11:49:15.409Z,39.6
2022-12-03T11:50:25.131Z,37.1
2022-12-03T11:51:32.277Z,38.1
2022-12-03T11:52:39.453Z,38.8
2022-12-03T11:53:46.773Z,36.7
2022-12-03T11:54:53.802Z,38.2
2022-12-03T11:56:04.661Z,38.6
2022-12-03T11:57:10.174Z,36.8
2022-12-03T11:58:22.209Z,37.6
2022-12-03T11:59:29.365Z,37.7
2022-12-03T12:00:36.562Z,37.6
2022-12-03T12:01:43.781Z,33.7
2022-12-03T12:02:51.901Z,35
2022-12-03T12:03:58.743Z,36.3
2022-12-03T12:05:06.574Z,35.7
2022-12-03T12:06:21.434Z,36.5
2022-12-03T12:07:28.530Z,36.8
2022-12-03T12:08:38.263Z,35.7
2022-12-03T12:09:50.728Z,35.5
2022-12-03T12:10:57.808Z,36.9
2022-12-03T12:12:04.729Z,38
2022-12-03T12:13:22.252Z,37.1
2022-12-03T12:14:30.198Z,38.8
2022-12-03T12:15:37.505Z,38.9
2022-12-03T12:16:47.699Z,39.9
2022-12-03T12:17:55.649Z,38
2022-12-03T12:19:13.878Z,37.5
2022-12-03T12:20:31.470Z,36.1
2022-12-03T12:21:38.569Z,37.4
2022-12-03T12:22:46.433Z,38
2022-12-03T12:23:54.578Z,38.1
2022-12-03T12:25:03.046Z,39.1
2022-12-03T12:26:20.538Z,37.7
2022-12-03T12:27:27.589Z,40.7
2022-12-03T12:28:42.681Z,41.2
2022-12-03T12:29:49.773Z,39
2022-12-03T12:30:56.956Z,39.3
2022-12-03T12:32:04.182Z,41.3
2022-12-03T12:33:13.817Z,40.4
2022-12-03T12:34:23.446Z,40.6
2022-12-03T12:35:30.553Z,41.4
2022-12-03T12:36:37.657Z,42
2022-12-03T12:37:47.286Z,41.1
2022-12-03T12:38:57.925Z,42.6
2022-12-03T12:40:05.234Z,39.5
2022-12-03T12:41:15.391Z,42.3
2022-12-03T12:42:22.501Z,41
2022-12-03T12:43:37.786Z,39.6
2022-12-03T12:44:44.981Z,42.2
2022-12-03T12:45:52.154Z,37.5
2022-12-03T12:46:59.215Z,38.5
2022-12-03T12:48:07.517Z,39.6
2022-12-03T12:49:17.887Z,39
2022-12-03T12:50:24.737Z,40.4
2022-12-03T12:51:31.906Z,38.4
2022-12-03T12:52:39.166Z,41.6
2022-12-03T12:53:57.069Z,40.7
2022-12-03T12:55:05.283Z,40.5
2022-12-03T12:56:11.046Z,38.6
2022-12-03T12:57:25.868Z,37.6
2022-12-03T12:58:32.961Z,37.9
2022-12-03T12:59:41.029Z,38.7
2022-12-03T13:00:48.343Z,41.1
2022-12-03T13:01:58.584Z,39.5
2022-12-03T13:03:05.581Z,37.5
2022-12-03T13:04:13.753Z,38
2022-12-03T13:05:23.947Z,39.3
2022-12-03T13:06:36.221Z,38.9
2022-12-03T13:07:43.396Z,41
2022-12-03T13:08:50.556Z,38.9
2022-12-03T13:09:57.795Z,39
2022-12-03T13:11:05.076Z,39.7
2022-12-03T13:12:22.565Z,38.5
2022-12-03T13:13:29.781Z,39.7
2022-12-03T13:14:44.974Z,38.5
2022-12-03T13:15:53.075Z,38.1
2022-12-03T13:17:05.121Z,37
2022-12-03T13:18:17.454Z,39.4
2022-12-03T13:19:29.919Z,40.1
2022-12-03T13:20:37.034Z,38.4
2022-12-03T13:21:44.331Z,40.1
2022-12-03T13:22:51.357Z,40.4
2022-12-03T13:23:58.564Z,39.2
2022-12-03T13:25:05.970Z,39.1
2022-12-03T13:26:29.371Z,37.5
2022-12-03T13:27:25.528Z,37
2022-12-03T13:28:35.202Z,35.6
2022-12-03T13:29:42.681Z,36.9
2022-12-03T13:30:49.513Z,36.9
2022-12-03T13:31:56.906Z,36.3
2022-12-03T13:33:06.989Z,34.8
2022-12-03T13:34:17.167Z,35
2022-12-03T13:35:24.195Z,36.2
2022-12-03T13:36:31.902Z,35.2
2022-12-03T13:37:38.971Z,36.4
2022-12-03T13:38:46.220Z,37.9
2022-12-03T13:39:53.593Z,38.5
2022-12-03T13:41:00.682Z,38.7
2022-12-03T13:42:07.622Z,38.5
2022-12-03T13:43:24.885Z,40.2
2022-12-03T13:44:32.833Z,36.3
2022-12-03T13:45:39.813Z,36.1
2022-12-03T13:46:47.750Z,35.1
2022-12-03T13:47:54.998Z,33.5
2022-12-03T13:49:02.349Z,32.9
2022-12-03T13:50:19.788Z,34.1
2022-12-03T13:51:32.366Z,34.7
2022-12-03T13:52:39.220Z,34.9
2022-12-03T13:53:46.405Z,33.8
2022-12-03T13:54:53.652Z,34.2
2022-12-03T13:56:01.061Z,34.6
2022-12-03T13:57:18.542Z,34.2
2022-12-03T13:58:26.339Z,33.9
2022-12-03T13:59:34.769Z,33.1
2022-12-03T14:00:41.970Z,35.2
2022-12-03T14:01:48.931Z,33.2
2022-12-03T14:02:56.173Z,34.7
2022-12-03T14:04:03.246Z,33.7
2022-12-03T14:05:10.316Z,34.5
2022-12-03T14:06:17.769Z,35
2022-12-03T14:07:25.234Z,33.3
2022-12-03T14:08:32.282Z,34.9
2022-12-03T14:09:39.446Z,34.2
2022-12-03T14:10:46.861Z,35.3
2022-12-03T14:11:53.747Z,36.1
2022-12-03T14:13:06.001Z,35.1
2022-12-03T14:14:13.149Z,35.3
2022-12-03T14:15:21.276Z,35.6
2022-12-03T14:16:28.909Z,35
2022-12-03T14:17:35.981Z,37.2
2022-12-03T14:18:43.878Z,36.8
2022-12-03T14:19:50.833Z,36.4
2022-12-03T14:20:58.226Z,36.3
2022-12-03T14:22:05.577Z,36.5
2022-12-03T14:23:12.928Z,37.1
2022-12-03T14:24:19.982Z,35.6
2022-12-03T14:25:26.992Z,37
2022-12-03T14:26:34.173Z,36.3
2022-12-03T14:27:41.265Z,36.1
2022-12-03T14:28:49.089Z,36.4
2022-12-03T14:29:56.512Z,36.1
2022-12-03T14:31:03.377Z,35.4
2022-12-03T14:32:10.357Z,35.2
2022-12-03T14:33:17.465Z,38.1
2022-12-03T14:34:24.533Z,36.9
2022-12-03T14:35:32.668Z,37.4
2022-12-03T14:36:39.984Z,37.2
2022-12-03T14:37:48.220Z,37.6
2022-12-03T14:38:55.305Z,37.1
2022-12-03T14:40:02.741Z,37.8
2022-12-03T14:41:10.977Z,38
2022-12-03T14:42:23.262Z,37.8
2022-12-03T14:43:30.409Z,39.5
2022-12-03T14:44:37.509Z,39.8
2022-12-03T14:45:45.078Z,39.5
2022-12-03T14:46:56.721Z,37.6
2022-12-03T14:47:59.324Z,36.3
2022-12-03T14:49:06.220Z,36.7
2022-12-03T14:50:14.538Z,38.1
2022-12-03T14:51:21.386Z,37.5
2022-12-03T14:52:28.537Z,37.4
2022-12-03T14:53:35.760Z,38
2022-12-03T14:54:43.103Z,37.5
2022-12-03T14:55:50.408Z,36.7
2022-12-03T14:56:57.649Z,37.5
2022-12-03T14:58:04.858Z,37.1
2022-12-03T14:59:12.873Z,38
2022-12-03T15:00:20.017Z,38.4
2022-12-03T15:01:27.316Z,38.4
2022-12-03T15:02:34.377Z,39.3
2022-12-03T15:03:41.452Z,39.7
2022-12-03T15:04:48.664Z,40.1
2022-12-03T15:05:56.795Z,39.3
2022-12-03T15:07:04.037Z,39.7
2022-12-03T15:08:12.081Z,40.5
2022-12-03T15:09:20.113Z,40.4
2022-12-03T15:10:28.613Z,38.1
2022-12-03T15:11:35.649Z,37.9
2022-12-03T15:12:42.749Z,38.1
2022-12-03T15:13:50.138Z,38.5